sensor_id;sensor_type;location;lat;lon;timestamp;P1;durP1;ratioP1;P2;durP2;ratioP2
79126;SDS011;68528;48.814;8.904;2023-05-20T00:00:30;7.38;;;2.63;;
79126;SDS011;68528;48.814;8.904;2023-05-20T00:02:55;5.22;;;2.63;;
79126;SDS011;68528;48.814;8.904;2023-05-20T00:05:21;7.72;;;2.72;;
79126;SDS011;68528;48.814;8.904;2023-05-20T00:07:47;4.40;;;2.63;;
79126;SDS011;68528;48.814;8.904;2023-05-20T00:10:13;7.03;;;2.28;;
79126;SDS011;68528;48.814;8.904;2023-05-20T00:12:38;6.82;;;3.08;;
79126;SDS011;68528;48.814;8.904;2023-05-20T00:15:04;4.50;;;2.60;;
79126;SDS011;68528;48.814;8.904;2023-05-20T00:17:30;3.97;;;2.63;;
79126;SDS011;68528;48.814;8.904;2023-05-20T00:19:56;3.70;;;2.53;;
79126;SDS011;68528;48.814;8.904;2023-05-20T00:22:21;4.72;;;3.28;;
79126;SDS011;68528;48.814;8.904;2023-05-20T00:24:47;5.90;;;3.47;;
79126;SDS011;68528;48.814;8.904;2023-05-20T00:27:12;7.55;;;3.67;;
79126;SDS011;68528;48.814;8.904;2023-05-20T00:29:38;6.20;;;3.13;;
79126;SDS011;68528;48.814;8.904;2023-05-20T00:32:03;6.35;;;3.45;;
79126;SDS011;68528;48.814;8.904;2023-05-20T00:34:29;5.03;;;2.97;;
79126;SDS011;68528;48.814;8.904;2023-05-20T00:36:54;5.18;;;2.97;;
79126;SDS011;68528;48.814;8.904;2023-05-20T00:39:23;7.25;;;2.85;;
79126;SDS011;68528;48.814;8.904;2023-05-20T00:41:51;6.40;;;3.38;;
79126;SDS011;68528;48.814;8.904;2023-05-20T00:44:17;6.30;;;3.92;;
79126;SDS011;68528;48.814;8.904;2023-05-20T00:46:47;6.97;;;3.70;;
79126;SDS011;68528;48.814;8.904;2023-05-20T00:49:14;4.63;;;3.25;;
79126;SDS011;68528;48.814;8.904;2023-05-20T00:51:40;5.30;;;3.20;;
79126;SDS011;68528;48.814;8.904;2023-05-20T00:54:05;6.15;;;3.38;;
79126;SDS011;68528;48.814;8.904;2023-05-20T00:56:31;6.05;;;3.30;;
79126;SDS011;68528;48.814;8.904;2023-05-20T00:58:56;4.70;;;3.30;;
79126;SDS011;68528;48.814;8.904;2023-05-20T01:01:23;5.03;;;3.13;;
79126;SDS011;68528;48.814;8.904;2023-05-20T01:03:48;4.32;;;3.60;;
79126;SDS011;68528;48.814;8.904;2023-05-20T01:06:14;5.75;;;3.25;;
79126;SDS011;68528;48.814;8.904;2023-05-20T01:08:40;6.25;;;4.03;;
79126;SDS011;68528;48.814;8.904;2023-05-20T01:11:07;6.63;;;3.35;;
79126;SDS011;68528;48.814;8.904;2023-05-20T01:13:39;6.00;;;3.60;;
79126;SDS011;68528;48.814;8.904;2023-05-20T01:16:11;5.28;;;3.17;;
79126;SDS011;68528;48.814;8.904;2023-05-20T01:18:42;4.80;;;3.30;;
79126;SDS011;68528;48.814;8.904;2023-05-20T01:21:10;5.18;;;3.13;;
79126;SDS011;68528;48.814;8.904;2023-05-20T01:26:06;3.75;;;3.05;;
79126;SDS011;68528;48.814;8.904;2023-05-20T01:28:33;4.50;;;3.00;;
79126;SDS011;68528;48.814;8.904;2023-05-20T01:31:00;6.13;;;3.45;;
79126;SDS011;68528;48.814;8.904;2023-05-20T01:33:29;6.82;;;3.65;;
79126;SDS011;68528;48.814;8.904;2023-05-20T01:35:58;7.72;;;3.03;;
79126;SDS011;68528;48.814;8.904;2023-05-20T01:38:24;4.55;;;3.10;;
79126;SDS011;68528;48.814;8.904;2023-05-20T01:40:51;6.63;;;3.50;;
79126;SDS011;68528;48.814;8.904;2023-05-20T01:43:18;6.10;;;3.20;;
79126;SDS011;68528;48.814;8.904;2023-05-20T01:45:44;4.68;;;3.30;;
79126;SDS011;68528;48.814;8.904;2023-05-20T01:48:10;5.85;;;3.00;;
79126;SDS011;68528;48.814;8.904;2023-05-20T01:50:36;4.95;;;3.38;;
79126;SDS011;68528;48.814;8.904;2023-05-20T01:53:04;9.05;;;3.40;;
79126;SDS011;68528;48.814;8.904;2023-05-20T01:55:30;4.70;;;3.45;;
79126;SDS011;68528;48.814;8.904;2023-05-20T01:57:55;4.47;;;3.00;;
79126;SDS011;68528;48.814;8.904;2023-05-20T02:00:20;7.85;;;3.33;;
79126;SDS011;68528;48.814;8.904;2023-05-20T02:02:47;4.55;;;3.30;;
79126;SDS011;68528;48.814;8.904;2023-05-20T02:05:12;5.73;;;3.00;;
79126;SDS011;68528;48.814;8.904;2023-05-20T02:07:39;4.78;;;3.47;;
79126;SDS011;68528;48.814;8.904;2023-05-20T02:10:07;7.75;;;3.30;;
79126;SDS011;68528;48.814;8.904;2023-05-20T02:12:54;5.07;;;3.17;;
79126;SDS011;68528;48.814;8.904;2023-05-20T02:15:20;5.43;;;3.40;;
79126;SDS011;68528;48.814;8.904;2023-05-20T02:17:45;8.75;;;3.15;;
79126;SDS011;68528;48.814;8.904;2023-05-20T02:20:11;5.85;;;2.72;;
79126;SDS011;68528;48.814;8.904;2023-05-20T02:22:37;5.03;;;2.92;;
79126;SDS011;68528;48.814;8.904;2023-05-20T02:25:03;4.65;;;2.92;;
79126;SDS011;68528;48.814;8.904;2023-05-20T02:27:37;4.82;;;3.08;;
79126;SDS011;68528;48.814;8.904;2023-05-20T02:30:23;4.13;;;3.58;;
79126;SDS011;68528;48.814;8.904;2023-05-20T02:32:48;5.35;;;3.42;;
79126;SDS011;68528;48.814;8.904;2023-05-20T02:35:14;4.93;;;3.40;;
79126;SDS011;68528;48.814;8.904;2023-05-20T02:37:40;5.10;;;3.38;;
79126;SDS011;68528;48.814;8.904;2023-05-20T02:40:06;4.63;;;3.30;;
79126;SDS011;68528;48.814;8.904;2023-05-20T02:42:33;7.03;;;3.28;;
79126;SDS011;68528;48.814;8.904;2023-05-20T02:45:01;4.35;;;3.28;;
79126;SDS011;68528;48.814;8.904;2023-05-20T02:47:26;4.57;;;3.28;;
79126;SDS011;68528;48.814;8.904;2023-05-20T02:49:52;4.57;;;3.28;;
79126;SDS011;68528;48.814;8.904;2023-05-20T02:52:18;5.43;;;3.38;;
79126;SDS011;68528;48.814;8.904;2023-05-20T02:54:43;5.90;;;3.45;;
79126;SDS011;68528;48.814;8.904;2023-05-20T02:57:08;4.15;;;2.88;;
79126;SDS011;68528;48.814;8.904;2023-05-20T02:59:34;5.72;;;3.55;;
79126;SDS011;68528;48.814;8.904;2023-05-20T03:01:59;3.78;;;2.80;;
79126;SDS011;68528;48.814;8.904;2023-05-20T03:04:25;4.13;;;3.20;;
79126;SDS011;68528;48.814;8.904;2023-05-20T03:06:55;6.50;;;3.70;;
79126;SDS011;68528;48.814;8.904;2023-05-20T03:09:23;5.15;;;3.10;;
79126;SDS011;68528;48.814;8.904;2023-05-20T03:11:49;5.35;;;3.38;;
79126;SDS011;68528;48.814;8.904;2023-05-20T03:14:15;5.70;;;3.55;;
79126;SDS011;68528;48.814;8.904;2023-05-20T03:16:40;5.72;;;2.97;;
79126;SDS011;68528;48.814;8.904;2023-05-20T03:19:06;5.75;;;3.30;;
79126;SDS011;68528;48.814;8.904;2023-05-20T03:21:31;5.68;;;3.15;;
79126;SDS011;68528;48.814;8.904;2023-05-20T03:24:00;8.63;;;3.33;;
79126;SDS011;68528;48.814;8.904;2023-05-20T03:26:25;5.82;;;3.30;;
79126;SDS011;68528;48.814;8.904;2023-05-20T03:28:52;4.97;;;3.15;;
79126;SDS011;68528;48.814;8.904;2023-05-20T03:31:17;5.15;;;2.97;;
79126;SDS011;68528;48.814;8.904;2023-05-20T03:33:43;7.95;;;2.97;;
79126;SDS011;68528;48.814;8.904;2023-05-20T03:36:10;4.85;;;3.17;;
79126;SDS011;68528;48.814;8.904;2023-05-20T03:38:35;4.53;;;3.33;;
79126;SDS011;68528;48.814;8.904;2023-05-20T03:41:00;7.97;;;4.10;;
79126;SDS011;68528;48.814;8.904;2023-05-20T03:43:27;6.65;;;3.63;;
79126;SDS011;68528;48.814;8.904;2023-05-20T03:45:52;5.22;;;3.60;;
79126;SDS011;68528;48.814;8.904;2023-05-20T03:48:18;5.15;;;3.05;;
79126;SDS011;68528;48.814;8.904;2023-05-20T03:50:44;5.65;;;3.47;;
79126;SDS011;68528;48.814;8.904;2023-05-20T03:53:10;4.45;;;3.50;;
79126;SDS011;68528;48.814;8.904;2023-05-20T03:55:35;5.55;;;3.83;;
79126;SDS011;68528;48.814;8.904;2023-05-20T03:58:00;7.30;;;3.88;;
79126;SDS011;68528;48.814;8.904;2023-05-20T04:00:26;5.93;;;3.72;;
79126;SDS011;68528;48.814;8.904;2023-05-20T04:02:55;4.50;;;3.17;;
79126;SDS011;68528;48.814;8.904;2023-05-20T04:05:22;6.85;;;3.70;;
79126;SDS011;68528;48.814;8.904;2023-05-20T04:07:48;5.13;;;3.72;;
79126;SDS011;68528;48.814;8.904;2023-05-20T04:10:18;5.40;;;3.25;;
79126;SDS011;68528;48.814;8.904;2023-05-20T04:12:44;7.55;;;3.63;;
79126;SDS011;68528;48.814;8.904;2023-05-20T04:15:11;4.43;;;3.22;;
79126;SDS011;68528;48.814;8.904;2023-05-20T04:17:36;4.30;;;3.30;;
79126;SDS011;68528;48.814;8.904;2023-05-20T04:20:04;4.93;;;3.38;;
79126;SDS011;68528;48.814;8.904;2023-05-20T04:22:31;4.22;;;3.20;;
79126;SDS011;68528;48.814;8.904;2023-05-20T04:24:57;7.03;;;3.72;;
79126;SDS011;68528;48.814;8.904;2023-05-20T04:27:23;5.40;;;3.33;;
79126;SDS011;68528;48.814;8.904;2023-05-20T04:29:54;6.30;;;4.00;;
79126;SDS011;68528;48.814;8.904;2023-05-20T04:32:45;8.88;;;3.83;;
79126;SDS011;68528;48.814;8.904;2023-05-20T04:35:12;4.82;;;3.58;;
79126;SDS011;68528;48.814;8.904;2023-05-20T11:54:05;6.55;;;3.83;;
79126;SDS011;68528;48.814;8.904;2023-05-20T11:56:32;5.53;;;4.22;;
79126;SDS011;68528;48.814;8.904;2023-05-20T12:02:01;6.13;;;3.30;;
79126;SDS011;68528;48.814;8.904;2023-05-20T12:04:32;5.65;;;3.50;;
79126;SDS011;68528;48.814;8.904;2023-05-20T12:06:58;5.53;;;3.70;;
79126;SDS011;68528;48.814;8.904;2023-05-20T12:09:23;5.00;;;3.28;;
79126;SDS011;68528;48.814;8.904;2023-05-20T12:11:50;4.50;;;3.30;;
79126;SDS011;68528;48.814;8.904;2023-05-20T12:14:15;5.72;;;3.47;;
79126;SDS011;68528;48.814;8.904;2023-05-20T13:34:50;3.67;;;3.25;;
79126;SDS011;68528;48.814;8.904;2023-05-20T13:40:24;3.75;;;3.10;;
79126;SDS011;68528;48.814;8.904;2023-05-20T13:42:49;4.68;;;3.50;;
79126;SDS011;68528;48.814;8.904;2023-05-20T13:45:15;5.90;;;3.72;;
79126;SDS011;68528;48.814;8.904;2023-05-20T13:53:54;5.00;;;3.53;;
79126;SDS011;68528;48.814;8.904;2023-05-20T13:56:23;5.95;;;3.75;;
79126;SDS011;68528;48.814;8.904;2023-05-20T13:58:48;4.63;;;3.42;;
79126;SDS011;68528;48.814;8.904;2023-05-20T14:01:17;4.13;;;3.40;;
79126;SDS011;68528;48.814;8.904;2023-05-20T14:03:46;6.18;;;3.78;;
79126;SDS011;68528;48.814;8.904;2023-05-20T14:12:38;6.68;;;3.53;;
79126;SDS011;68528;48.814;8.904;2023-05-20T14:15:04;4.85;;;3.55;;
79126;SDS011;68528;48.814;8.904;2023-05-20T14:17:30;4.18;;;3.63;;
79126;SDS011;68528;48.814;8.904;2023-05-20T14:19:55;5.28;;;3.63;;
79126;SDS011;68528;48.814;8.904;2023-05-20T14:22:21;4.47;;;3.60;;
79126;SDS011;68528;48.814;8.904;2023-05-20T14:31:29;6.43;;;3.83;;
79126;SDS011;68528;48.814;8.904;2023-05-20T14:34:48;5.15;;;4.13;;
79126;SDS011;68528;48.814;8.904;2023-05-20T14:37:28;7.20;;;3.30;;
79126;SDS011;68528;48.814;8.904;2023-05-20T14:46:18;5.10;;;3.47;;
79126;SDS011;68528;48.814;8.904;2023-05-20T14:48:44;4.95;;;3.78;;
79126;SDS011;68528;48.814;8.904;2023-05-20T14:51:10;7.00;;;4.00;;
79126;SDS011;68528;48.814;8.904;2023-05-20T14:53:37;4.90;;;3.88;;
79126;SDS011;68528;48.814;8.904;2023-05-20T14:58:53;5.28;;;4.10;;
79126;SDS011;68528;48.814;8.904;2023-05-20T15:08:05;6.70;;;3.47;;
79126;SDS011;68528;48.814;8.904;2023-05-20T15:14:08;4.43;;;2.85;;
79126;SDS011;68528;48.814;8.904;2023-05-20T15:16:33;4.47;;;3.13;;
79126;SDS011;68528;48.814;8.904;2023-05-20T15:27:59;4.72;;;3.03;;
79126;SDS011;68528;48.814;8.904;2023-05-20T15:30:33;7.03;;;2.95;;
79126;SDS011;68528;48.814;8.904;2023-05-20T16:41:50;10.45;;;3.92;;
79126;SDS011;68528;48.814;8.904;2023-05-20T16:44:15;13.35;;;3.97;;
79126;SDS011;68528;48.814;8.904;2023-05-20T16:46:41;15.75;;;3.90;;
79126;SDS011;68528;48.814;8.904;2023-05-20T16:49:06;13.88;;;4.13;;
79126;SDS011;68528;48.814;8.904;2023-05-20T16:51:32;9.50;;;4.35;;
79126;SDS011;68528;48.814;8.904;2023-05-20T16:53:57;16.25;;;4.40;;
79126;SDS011;68528;48.814;8.904;2023-05-20T16:56:23;15.85;;;4.70;;
79126;SDS011;68528;48.814;8.904;2023-05-20T16:58:48;12.80;;;4.50;;
79126;SDS011;68528;48.814;8.904;2023-05-20T17:01:13;14.50;;;4.45;;
79126;SDS011;68528;48.814;8.904;2023-05-20T17:03:39;16.05;;;5.18;;
79126;SDS011;68528;48.814;8.904;2023-05-20T17:06:04;12.30;;;4.90;;
79126;SDS011;68528;48.814;8.904;2023-05-20T17:08:31;12.20;;;3.95;;
79126;SDS011;68528;48.814;8.904;2023-05-20T17:10:57;9.93;;;3.75;;
79126;SDS011;68528;48.814;8.904;2023-05-20T17:13:23;14.98;;;4.55;;
79126;SDS011;68528;48.814;8.904;2023-05-20T17:15:49;12.88;;;4.50;;
79126;SDS011;68528;48.814;8.904;2023-05-20T17:18:14;11.57;;;4.82;;
79126;SDS011;68528;48.814;8.904;2023-05-20T17:20:40;11.63;;;3.80;;
79126;SDS011;68528;48.814;8.904;2023-05-20T17:23:05;8.75;;;4.47;;
79126;SDS011;68528;48.814;8.904;2023-05-20T17:25:30;12.25;;;4.65;;
79126;SDS011;68528;48.814;8.904;2023-05-20T17:27:56;13.55;;;4.40;;
79126;SDS011;68528;48.814;8.904;2023-05-20T17:30:21;11.18;;;4.13;;
79126;SDS011;68528;48.814;8.904;2023-05-20T17:32:46;9.30;;;3.83;;
79126;SDS011;68528;48.814;8.904;2023-05-20T17:35:12;11.27;;;4.00;;
79126;SDS011;68528;48.814;8.904;2023-05-20T17:37:37;9.57;;;4.05;;
79126;SDS011;68528;48.814;8.904;2023-05-20T17:40:02;8.13;;;4.38;;
79126;SDS011;68528;48.814;8.904;2023-05-20T17:42:31;9.88;;;4.20;;
79126;SDS011;68528;48.814;8.904;2023-05-20T17:44:57;7.78;;;3.95;;
79126;SDS011;68528;48.814;8.904;2023-05-20T17:47:23;11.35;;;3.83;;
79126;SDS011;68528;48.814;8.904;2023-05-20T17:49:48;9.15;;;3.80;;
79126;SDS011;68528;48.814;8.904;2023-05-20T17:52:14;8.77;;;3.90;;
79126;SDS011;68528;48.814;8.904;2023-05-20T17:54:39;7.82;;;3.72;;
79126;SDS011;68528;48.814;8.904;2023-05-20T17:57:05;9.57;;;3.90;;
79126;SDS011;68528;48.814;8.904;2023-05-20T17:59:30;11.02;;;3.70;;
79126;SDS011;68528;48.814;8.904;2023-05-20T18:01:57;13.38;;;4.22;;
79126;SDS011;68528;48.814;8.904;2023-05-20T18:04:23;6.82;;;4.15;;
79126;SDS011;68528;48.814;8.904;2023-05-20T18:06:50;11.13;;;4.30;;
79126;SDS011;68528;48.814;8.904;2023-05-20T18:09:15;8.57;;;3.92;;
79126;SDS011;68528;48.814;8.904;2023-05-20T18:11:41;10.35;;;4.22;;
79126;SDS011;68528;48.814;8.904;2023-05-20T18:14:07;8.00;;;3.83;;
79126;SDS011;68528;48.814;8.904;2023-05-20T18:16:33;7.60;;;3.40;;
79126;SDS011;68528;48.814;8.904;2023-05-20T18:18:58;9.02;;;3.55;;
79126;SDS011;68528;48.814;8.904;2023-05-20T18:21:24;14.82;;;4.40;;
79126;SDS011;68528;48.814;8.904;2023-05-20T18:23:50;13.02;;;4.10;;
79126;SDS011;68528;48.814;8.904;2023-05-20T18:26:15;12.02;;;5.20;;
79126;SDS011;68528;48.814;8.904;2023-05-20T18:28:41;6.68;;;4.00;;
79126;SDS011;68528;48.814;8.904;2023-05-20T18:31:06;7.20;;;3.65;;
79126;SDS011;68528;48.814;8.904;2023-05-20T18:33:33;8.93;;;3.38;;
79126;SDS011;68528;48.814;8.904;2023-05-20T18:35:58;9.95;;;4.28;;
79126;SDS011;68528;48.814;8.904;2023-05-20T18:38:24;10.30;;;3.92;;
79126;SDS011;68528;48.814;8.904;2023-05-20T18:40:50;13.88;;;4.00;;
79126;SDS011;68528;48.814;8.904;2023-05-20T18:43:16;6.22;;;3.28;;
79126;SDS011;68528;48.814;8.904;2023-05-20T18:45:44;9.65;;;3.83;;
79126;SDS011;68528;48.814;8.904;2023-05-20T18:48:10;13.95;;;3.78;;
79126;SDS011;68528;48.814;8.904;2023-05-20T18:50:36;9.15;;;3.28;;
79126;SDS011;68528;48.814;8.904;2023-05-20T18:53:01;10.93;;;3.67;;
79126;SDS011;68528;48.814;8.904;2023-05-20T18:55:27;5.93;;;3.42;;
79126;SDS011;68528;48.814;8.904;2023-05-20T18:57:53;14.43;;;4.63;;
79126;SDS011;68528;48.814;8.904;2023-05-20T19:00:18;13.73;;;4.50;;
79126;SDS011;68528;48.814;8.904;2023-05-20T19:02:44;10.18;;;4.00;;
79126;SDS011;68528;48.814;8.904;2023-05-20T19:05:10;9.93;;;3.85;;
79126;SDS011;68528;48.814;8.904;2023-05-20T19:07:39;6.35;;;4.25;;
79126;SDS011;68528;48.814;8.904;2023-05-20T19:10:05;11.88;;;3.92;;
79126;SDS011;68528;48.814;8.904;2023-05-20T19:12:32;10.35;;;4.10;;
79126;SDS011;68528;48.814;8.904;2023-05-20T19:14:58;11.30;;;4.00;;
79126;SDS011;68528;48.814;8.904;2023-05-20T19:17:24;10.05;;;3.88;;
79126;SDS011;68528;48.814;8.904;2023-05-20T19:19:51;9.27;;;4.20;;
79126;SDS011;68528;48.814;8.904;2023-05-20T19:22:17;9.73;;;4.00;;
79126;SDS011;68528;48.814;8.904;2023-05-20T19:24:43;10.50;;;3.95;;
79126;SDS011;68528;48.814;8.904;2023-05-20T19:27:09;11.90;;;4.22;;
79126;SDS011;68528;48.814;8.904;2023-05-20T19:29:38;11.40;;;4.40;;
79126;SDS011;68528;48.814;8.904;2023-05-20T19:32:07;16.10;;;4.43;;
79126;SDS011;68528;48.814;8.904;2023-05-20T19:34:33;8.98;;;3.75;;
79126;SDS011;68528;48.814;8.904;2023-05-20T19:37:00;7.40;;;3.65;;
79126;SDS011;68528;48.814;8.904;2023-05-20T19:39:26;9.52;;;4.10;;
79126;SDS011;68528;48.814;8.904;2023-05-20T19:41:51;8.23;;;3.50;;
79126;SDS011;68528;48.814;8.904;2023-05-20T19:44:17;9.55;;;4.13;;
79126;SDS011;68528;48.814;8.904;2023-05-20T19:46:43;10.13;;;4.40;;
79126;SDS011;68528;48.814;8.904;2023-05-20T19:49:08;9.02;;;3.97;;
79126;SDS011;68528;48.814;8.904;2023-05-20T19:51:33;6.15;;;3.50;;
79126;SDS011;68528;48.814;8.904;2023-05-20T19:53:59;8.48;;;4.25;;
79126;SDS011;68528;48.814;8.904;2023-05-20T19:56:24;8.90;;;3.75;;
79126;SDS011;68528;48.814;8.904;2023-05-20T19:58:50;10.00;;;3.65;;
79126;SDS011;68528;48.814;8.904;2023-05-20T20:01:15;10.35;;;3.70;;
79126;SDS011;68528;48.814;8.904;2023-05-20T20:03:41;14.23;;;4.18;;
79126;SDS011;68528;48.814;8.904;2023-05-20T20:06:08;8.48;;;3.88;;
79126;SDS011;68528;48.814;8.904;2023-05-20T20:08:34;7.50;;;3.45;;
79126;SDS011;68528;48.814;8.904;2023-05-20T20:11:02;7.93;;;3.17;;
79126;SDS011;68528;48.814;8.904;2023-05-20T20:13:28;7.45;;;3.22;;
79126;SDS011;68528;48.814;8.904;2023-05-20T20:15:54;6.72;;;3.40;;
79126;SDS011;68528;48.814;8.904;2023-05-20T20:18:19;7.55;;;3.90;;
79126;SDS011;68528;48.814;8.904;2023-05-20T20:20:45;10.55;;;4.30;;
79126;SDS011;68528;48.814;8.904;2023-05-20T20:23:10;6.78;;;3.58;;
79126;SDS011;68528;48.814;8.904;2023-05-20T20:25:36;9.57;;;4.28;;
79126;SDS011;68528;48.814;8.904;2023-05-20T20:28:07;9.98;;;3.45;;
79126;SDS011;68528;48.814;8.904;2023-05-20T20:30:33;7.57;;;3.65;;
79126;SDS011;68528;48.814;8.904;2023-05-20T20:33:00;7.93;;;3.88;;
79126;SDS011;68528;48.814;8.904;2023-05-20T20:35:26;8.52;;;3.47;;
79126;SDS011;68528;48.814;8.904;2023-05-20T20:37:51;8.40;;;3.70;;
79126;SDS011;68528;48.814;8.904;2023-05-20T20:40:21;7.22;;;3.58;;
79126;SDS011;68528;48.814;8.904;2023-05-20T20:42:47;10.57;;;3.92;;
79126;SDS011;68528;48.814;8.904;2023-05-20T20:45:14;8.80;;;3.80;;
79126;SDS011;68528;48.814;8.904;2023-05-20T20:47:40;6.75;;;3.38;;
79126;SDS011;68528;48.814;8.904;2023-05-20T20:50:08;10.00;;;3.40;;
79126;SDS011;68528;48.814;8.904;2023-05-20T20:52:37;7.30;;;3.75;;
79126;SDS011;68528;48.814;8.904;2023-05-20T20:55:06;8.43;;;3.55;;
79126;SDS011;68528;48.814;8.904;2023-05-20T20:57:34;8.20;;;3.58;;
79126;SDS011;68528;48.814;8.904;2023-05-20T21:00:04;5.47;;;3.38;;
79126;SDS011;68528;48.814;8.904;2023-05-20T21:02:47;7.22;;;3.58;;
79126;SDS011;68528;48.814;8.904;2023-05-20T21:05:12;12.05;;;3.75;;
79126;SDS011;68528;48.814;8.904;2023-05-20T21:07:44;7.57;;;3.45;;
79126;SDS011;68528;48.814;8.904;2023-05-20T21:10:13;7.43;;;4.03;;
79126;SDS011;68528;48.814;8.904;2023-05-20T21:12:39;7.25;;;3.60;;
79126;SDS011;68528;48.814;8.904;2023-05-20T21:15:04;9.32;;;3.83;;
79126;SDS011;68528;48.814;8.904;2023-05-20T21:17:30;6.78;;;3.05;;
79126;SDS011;68528;48.814;8.904;2023-05-20T21:19:56;11.77;;;3.75;;
79126;SDS011;68528;48.814;8.904;2023-05-20T21:22:21;8.15;;;3.47;;
79126;SDS011;68528;48.814;8.904;2023-05-20T21:24:47;5.85;;;2.90;;
79126;SDS011;68528;48.814;8.904;2023-05-20T21:27:12;4.60;;;3.22;;
79126;SDS011;68528;48.814;8.904;2023-05-20T21:29:38;6.43;;;3.03;;
79126;SDS011;68528;48.814;8.904;2023-05-20T21:32:03;5.55;;;3.08;;
79126;SDS011;68528;48.814;8.904;2023-05-20T21:34:29;5.18;;;3.25;;
79126;SDS011;68528;48.814;8.904;2023-05-20T21:36:54;8.95;;;3.50;;
79126;SDS011;68528;48.814;8.904;2023-05-20T21:39:20;5.13;;;3.35;;
79126;SDS011;68528;48.814;8.904;2023-05-20T21:41:45;6.10;;;3.00;;
79126;SDS011;68528;48.814;8.904;2023-05-20T21:44:11;5.57;;;3.22;;
79126;SDS011;68528;48.814;8.904;2023-05-20T21:46:36;6.18;;;2.78;;
79126;SDS011;68528;48.814;8.904;2023-05-20T21:49:01;8.88;;;3.40;;
79126;SDS011;68528;48.814;8.904;2023-05-20T21:51:27;6.72;;;3.20;;
79126;SDS011;68528;48.814;8.904;2023-05-20T21:53:52;6.32;;;3.30;;
79126;SDS011;68528;48.814;8.904;2023-05-20T21:56:17;6.78;;;3.30;;
79126;SDS011;68528;48.814;8.904;2023-05-20T21:58:43;6.40;;;2.83;;
79126;SDS011;68528;48.814;8.904;2023-05-20T22:01:08;4.67;;;2.90;;
79126;SDS011;68528;48.814;8.904;2023-05-20T22:03:34;6.32;;;2.80;;
79126;SDS011;68528;48.814;8.904;2023-05-20T22:06:00;6.18;;;3.53;;
79126;SDS011;68528;48.814;8.904;2023-05-20T22:08:27;6.38;;;3.72;;
79126;SDS011;68528;48.814;8.904;2023-05-20T22:10:57;3.92;;;3.10;;
79126;SDS011;68528;48.814;8.904;2023-05-20T22:13:24;4.25;;;3.05;;
79126;SDS011;68528;48.814;8.904;2023-05-20T22:15:50;5.32;;;2.75;;
79126;SDS011;68528;48.814;8.904;2023-05-20T22:18:17;5.75;;;2.85;;
79126;SDS011;68528;48.814;8.904;2023-05-20T22:20:43;4.70;;;3.20;;
79126;SDS011;68528;48.814;8.904;2023-05-20T22:23:08;5.53;;;3.10;;
79126;SDS011;68528;48.814;8.904;2023-05-20T22:25:34;8.77;;;3.15;;
79126;SDS011;68528;48.814;8.904;2023-05-20T22:28:00;6.65;;;3.40;;
79126;SDS011;68528;48.814;8.904;2023-05-20T22:30:28;5.20;;;3.22;;
79126;SDS011;68528;48.814;8.904;2023-05-20T22:32:54;7.50;;;3.30;;
79126;SDS011;68528;48.814;8.904;2023-05-20T22:35:20;6.45;;;3.42;;
79126;SDS011;68528;48.814;8.904;2023-05-20T22:37:47;3.38;;;2.67;;
79126;SDS011;68528;48.814;8.904;2023-05-20T22:40:13;4.07;;;2.92;;
79126;SDS011;68528;48.814;8.904;2023-05-20T22:42:39;4.88;;;3.28;;
79126;SDS011;68528;48.814;8.904;2023-05-20T22:45:05;5.75;;;3.45;;
79126;SDS011;68528;48.814;8.904;2023-05-20T22:47:30;6.30;;;3.35;;
79126;SDS011;68528;48.814;8.904;2023-05-20T22:49:56;7.80;;;3.90;;
79126;SDS011;68528;48.814;8.904;2023-05-20T22:52:26;7.50;;;3.88;;
79126;SDS011;68528;48.814;8.904;2023-05-20T22:54:51;6.03;;;3.47;;
79126;SDS011;68528;48.814;8.904;2023-05-20T22:57:17;7.97;;;3.87;;
79126;SDS011;68528;48.814;8.904;2023-05-20T22:59:42;5.20;;;3.38;;
79126;SDS011;68528;48.814;8.904;2023-05-20T23:02:08;4.85;;;3.47;;
79126;SDS011;68528;48.814;8.904;2023-05-20T23:04:33;7.40;;;3.77;;
79126;SDS011;68528;48.814;8.904;2023-05-20T23:06:58;5.55;;;3.50;;
79126;SDS011;68528;48.814;8.904;2023-05-20T23:09:24;5.60;;;3.67;;
79126;SDS011;68528;48.814;8.904;2023-05-20T23:11:49;4.70;;;3.83;;
79126;SDS011;68528;48.814;8.904;2023-05-20T23:14:14;5.22;;;3.42;;
79126;SDS011;68528;48.814;8.904;2023-05-20T23:16:40;4.15;;;3.08;;
79126;SDS011;68528;48.814;8.904;2023-05-20T23:19:06;11.70;;;4.15;;
79126;SDS011;68528;48.814;8.904;2023-05-20T23:21:32;6.80;;;3.33;;
79126;SDS011;68528;48.814;8.904;2023-05-20T23:23:58;5.32;;;2.90;;
79126;SDS011;68528;48.814;8.904;2023-05-20T23:26:23;5.07;;;3.17;;
79126;SDS011;68528;48.814;8.904;2023-05-20T23:28:52;5.55;;;3.70;;
79126;SDS011;68528;48.814;8.904;2023-05-20T23:31:18;4.78;;;3.30;;
79126;SDS011;68528;48.814;8.904;2023-05-20T23:33:43;8.73;;;3.80;;
79126;SDS011;68528;48.814;8.904;2023-05-20T23:36:08;5.03;;;3.20;;
79126;SDS011;68528;48.814;8.904;2023-05-20T23:38:34;4.55;;;3.13;;
79126;SDS011;68528;48.814;8.904;2023-05-20T23:40:59;5.25;;;3.17;;
79126;SDS011;68528;48.814;8.904;2023-05-20T23:43:25;4.80;;;3.47;;
79126;SDS011;68528;48.814;8.904;2023-05-20T23:45:50;5.57;;;3.13;;
79126;SDS011;68528;48.814;8.904;2023-05-20T23:48:15;7.38;;;3.40;;
79126;SDS011;68528;48.814;8.904;2023-05-20T23:50:41;5.32;;;3.63;;
79126;SDS011;68528;48.814;8.904;2023-05-20T23:53:07;5.55;;;3.58;;
79126;SDS011;68528;48.814;8.904;2023-05-20T23:55:33;6.45;;;3.35;;
79126;SDS011;68528;48.814;8.904;2023-05-20T23:57:58;5.22;;;3.60;;
